sensor_id;sensor_type;location;lat;lon;timestamp;P1;durP1;ratioP1;P2;durP2;ratioP2
5937;SDS011;2994;51.220;4.412;2022-11-15T00:00:48;26.63;;;19.27;;
5937;SDS011;2994;51.220;4.412;2022-11-15T00:03:14;29.83;;;21.60;;
5937;SDS011;2994;51.220;4.412;2022-11-15T00:05:44;27.70;;;20.17;;
5937;SDS011;2994;51.220;4.412;2022-11-15T00:08:10;28.27;;;19.80;;
5937;SDS011;2994;51.220;4.412;2022-11-15T00:10:36;26.33;;;19.23;;
5937;SDS011;2994;51.220;4.412;2022-11-15T00:13:12;22.97;;;17.67;;
5937;SDS011;2994;51.220;4.412;2022-11-15T00:15:38;30.43;;;20.40;;
5937;SDS011;2994;51.220;4.412;2022-11-15T00:18:05;25.50;;;19.50;;
5937;SDS011;2994;51.220;4.412;2022-11-15T00:20:34;28.83;;;19.50;;
5937;SDS011;2994;51.220;4.412;2022-11-15T00:23:00;29.70;;;18.67;;
5937;SDS011;2994;51.220;4.412;2022-11-15T00:25:27;21.90;;;17.93;;
5937;SDS011;2994;51.220;4.412;2022-11-15T00:27:56;21.17;;;16.97;;
5937;SDS011;2994;51.220;4.412;2022-11-15T00:30:22;24.97;;;18.60;;
5937;SDS011;2994;51.220;4.412;2022-11-15T00:32:48;20.77;;;16.93;;
5937;SDS011;2994;51.220;4.412;2022-11-15T00:35:14;22.70;;;17.40;;
5937;SDS011;2994;51.220;4.412;2022-11-15T00:37:39;23.53;;;16.60;;
5937;SDS011;2994;51.220;4.412;2022-11-15T00:40:05;23.00;;;17.37;;
5937;SDS011;2994;51.220;4.412;2022-11-15T00:42:31;20.43;;;16.33;;
5937;SDS011;2994;51.220;4.412;2022-11-15T00:44:56;21.33;;;16.00;;
5937;SDS011;2994;51.220;4.412;2022-11-15T00:47:21;19.90;;;16.30;;
5937;SDS011;2994;51.220;4.412;2022-11-15T00:49:47;18.77;;;15.10;;
5937;SDS011;2994;51.220;4.412;2022-11-15T00:52:12;20.30;;;14.60;;
5937;SDS011;2994;51.220;4.412;2022-11-15T00:54:37;19.30;;;15.50;;
5937;SDS011;2994;51.220;4.412;2022-11-15T00:57:03;15.97;;;14.37;;
5937;SDS011;2994;51.220;4.412;2022-11-15T00:59:29;17.93;;;15.20;;
5937;SDS011;2994;51.220;4.412;2022-11-15T01:01:54;20.97;;;14.90;;
5937;SDS011;2994;51.220;4.412;2022-11-15T01:04:19;18.90;;;15.50;;
5937;SDS011;2994;51.220;4.412;2022-11-15T01:06:45;16.53;;;14.73;;
5937;SDS011;2994;51.220;4.412;2022-11-15T01:09:10;17.07;;;12.83;;
5937;SDS011;2994;51.220;4.412;2022-11-15T01:11:36;19.30;;;13.80;;
5937;SDS011;2994;51.220;4.412;2022-11-15T01:14:01;17.53;;;15.20;;
5937;SDS011;2994;51.220;4.412;2022-11-15T01:16:27;16.57;;;13.27;;
5937;SDS011;2994;51.220;4.412;2022-11-15T01:18:52;14.90;;;12.60;;
5937;SDS011;2994;51.220;4.412;2022-11-15T01:21:18;17.17;;;14.07;;
5937;SDS011;2994;51.220;4.412;2022-11-15T01:23:44;18.30;;;14.83;;
5937;SDS011;2994;51.220;4.412;2022-11-15T01:26:10;15.77;;;13.37;;
5937;SDS011;2994;51.220;4.412;2022-11-15T01:28:40;17.10;;;13.90;;
5937;SDS011;2994;51.220;4.412;2022-11-15T01:31:07;16.90;;;14.37;;
5937;SDS011;2994;51.220;4.412;2022-11-15T01:33:36;15.60;;;13.20;;
5937;SDS011;2994;51.220;4.412;2022-11-15T01:36:05;13.90;;;11.70;;
5937;SDS011;2994;51.220;4.412;2022-11-15T01:38:32;15.20;;;12.80;;
5937;SDS011;2994;51.220;4.412;2022-11-15T01:40:58;16.60;;;13.40;;
5937;SDS011;2994;51.220;4.412;2022-11-15T01:43:28;16.27;;;14.40;;
5937;SDS011;2994;51.220;4.412;2022-11-15T01:46:00;15.50;;;13.43;;
5937;SDS011;2994;51.220;4.412;2022-11-15T01:48:31;14.87;;;13.37;;
5937;SDS011;2994;51.220;4.412;2022-11-15T01:50:59;14.40;;;12.70;;
5937;SDS011;2994;51.220;4.412;2022-11-15T01:53:27;15.97;;;11.93;;
5937;SDS011;2994;51.220;4.412;2022-11-15T01:55:55;13.90;;;12.33;;
5937;SDS011;2994;51.220;4.412;2022-11-15T01:58:21;12.27;;;10.90;;
5937;SDS011;2994;51.220;4.412;2022-11-15T02:00:47;15.03;;;12.13;;
5937;SDS011;2994;51.220;4.412;2022-11-15T02:03:14;15.33;;;11.10;;
5937;SDS011;2994;51.220;4.412;2022-11-15T02:05:40;16.40;;;11.50;;
5937;SDS011;2994;51.220;4.412;2022-11-15T02:08:06;12.10;;;10.80;;
5937;SDS011;2994;51.220;4.412;2022-11-15T02:10:33;15.00;;;12.37;;
5937;SDS011;2994;51.220;4.412;2022-11-15T02:12:59;13.50;;;12.10;;
5937;SDS011;2994;51.220;4.412;2022-11-15T02:15:26;14.20;;;11.70;;
5937;SDS011;2994;51.220;4.412;2022-11-15T02:18:11;16.73;;;11.33;;
5937;SDS011;2994;51.220;4.412;2022-11-15T02:26:24;12.10;;;10.87;;
5937;SDS011;2994;51.220;4.412;2022-11-15T02:31:48;13.10;;;10.10;;
5937;SDS011;2994;51.220;4.412;2022-11-15T02:34:43;11.90;;;9.50;;
5937;SDS011;2994;51.220;4.412;2022-11-15T02:37:32;14.10;;;10.47;;
5937;SDS011;2994;51.220;4.412;2022-11-15T02:42:49;13.90;;;10.33;;
5937;SDS011;2994;51.220;4.412;2022-11-15T02:45:37;13.60;;;10.07;;
5937;SDS011;2994;51.220;4.412;2022-11-15T02:48:08;12.67;;;10.70;;
5937;SDS011;2994;51.220;4.412;2022-11-15T02:50:35;12.50;;;9.87;;
5937;SDS011;2994;51.220;4.412;2022-11-15T02:53:00;15.47;;;11.20;;
5937;SDS011;2994;51.220;4.412;2022-11-15T02:55:30;12.40;;;10.10;;
5937;SDS011;2994;51.220;4.412;2022-11-15T03:00:55;12.80;;;10.20;;
5937;SDS011;2994;51.220;4.412;2022-11-15T03:09:02;10.90;;;9.60;;
5937;SDS011;2994;51.220;4.412;2022-11-15T03:11:33;12.80;;;10.67;;
5937;SDS011;2994;51.220;4.412;2022-11-15T03:14:17;12.00;;;10.20;;
5937;SDS011;2994;51.220;4.412;2022-11-15T03:17:23;10.60;;;9.43;;
5937;SDS011;2994;51.220;4.412;2022-11-15T03:19:54;11.33;;;9.53;;
5937;SDS011;2994;51.220;4.412;2022-11-15T03:22:25;15.73;;;10.33;;
5937;SDS011;2994;51.220;4.412;2022-11-15T03:24:54;13.90;;;10.60;;
5937;SDS011;2994;51.220;4.412;2022-11-15T03:27:24;12.80;;;10.50;;
5937;SDS011;2994;51.220;4.412;2022-11-15T03:29:55;12.37;;;9.73;;
5937;SDS011;2994;51.220;4.412;2022-11-15T03:32:25;12.87;;;10.30;;
5937;SDS011;2994;51.220;4.412;2022-11-15T03:37:24;11.13;;;9.10;;
5937;SDS011;2994;51.220;4.412;2022-11-15T03:39:54;12.50;;;9.47;;
5937;SDS011;2994;51.220;4.412;2022-11-15T03:42:22;13.77;;;10.63;;
5937;SDS011;2994;51.220;4.412;2022-11-15T03:45:05;11.00;;;9.63;;
5937;SDS011;2994;51.220;4.412;2022-11-15T03:47:46;12.50;;;9.40;;
5937;SDS011;2994;51.220;4.412;2022-11-15T03:50:13;10.87;;;7.93;;
5937;SDS011;2994;51.220;4.412;2022-11-15T03:52:44;11.63;;;8.90;;
5937;SDS011;2994;51.220;4.412;2022-11-15T03:55:12;13.40;;;8.83;;
5937;SDS011;2994;51.220;4.412;2022-11-15T03:57:40;11.80;;;8.67;;
5937;SDS011;2994;51.220;4.412;2022-11-15T04:00:06;11.93;;;8.90;;
5937;SDS011;2994;51.220;4.412;2022-11-15T04:02:32;11.80;;;8.33;;
5937;SDS011;2994;51.220;4.412;2022-11-15T04:04:58;13.80;;;8.43;;
5937;SDS011;2994;51.220;4.412;2022-11-15T04:07:23;10.70;;;8.50;;
5937;SDS011;2994;51.220;4.412;2022-11-15T04:09:48;14.37;;;8.93;;
5937;SDS011;2994;51.220;4.412;2022-11-15T04:12:30;11.10;;;8.17;;
5937;SDS011;2994;51.220;4.412;2022-11-15T04:15:05;10.90;;;7.20;;
5937;SDS011;2994;51.220;4.412;2022-11-15T04:17:48;8.77;;;7.83;;
5937;SDS011;2994;51.220;4.412;2022-11-15T04:20:22;8.70;;;7.30;;
5937;SDS011;2994;51.220;4.412;2022-11-15T04:23:11;8.37;;;7.17;;
5937;SDS011;2994;51.220;4.412;2022-11-15T04:25:58;10.17;;;7.17;;
5937;SDS011;2994;51.220;4.412;2022-11-15T04:28:26;10.00;;;7.77;;
5937;SDS011;2994;51.220;4.412;2022-11-15T04:30:51;8.77;;;7.60;;
5937;SDS011;2994;51.220;4.412;2022-11-15T04:33:17;8.47;;;7.47;;
5937;SDS011;2994;51.220;4.412;2022-11-15T04:35:42;11.17;;;8.33;;
5937;SDS011;2994;51.220;4.412;2022-11-15T04:38:09;11.00;;;7.10;;
5937;SDS011;2994;51.220;4.412;2022-11-15T04:40:36;7.90;;;7.10;;
5937;SDS011;2994;51.220;4.412;2022-11-15T04:43:02;10.10;;;7.03;;
5937;SDS011;2994;51.220;4.412;2022-11-15T04:45:29;7.90;;;6.67;;
5937;SDS011;2994;51.220;4.412;2022-11-15T04:47:55;8.53;;;6.47;;
5937;SDS011;2994;51.220;4.412;2022-11-15T04:50:20;9.97;;;7.50;;
5937;SDS011;2994;51.220;4.412;2022-11-15T04:52:50;11.63;;;7.47;;
5937;SDS011;2994;51.220;4.412;2022-11-15T04:55:17;9.27;;;5.90;;
5937;SDS011;2994;51.220;4.412;2022-11-15T04:57:42;7.97;;;6.47;;
5937;SDS011;2994;51.220;4.412;2022-11-15T05:00:09;9.87;;;6.40;;
5937;SDS011;2994;51.220;4.412;2022-11-15T05:02:36;8.07;;;6.47;;
5937;SDS011;2994;51.220;4.412;2022-11-15T05:05:21;10.20;;;7.20;;
5937;SDS011;2994;51.220;4.412;2022-11-15T05:07:47;12.07;;;7.03;;
5937;SDS011;2994;51.220;4.412;2022-11-15T05:10:12;10.07;;;6.80;;
5937;SDS011;2994;51.220;4.412;2022-11-15T05:12:38;7.60;;;5.60;;
5937;SDS011;2994;51.220;4.412;2022-11-15T05:15:03;9.20;;;6.10;;
5937;SDS011;2994;51.220;4.412;2022-11-15T05:17:29;7.77;;;5.90;;
5937;SDS011;2994;51.220;4.412;2022-11-15T05:19:54;8.73;;;6.67;;
5937;SDS011;2994;51.220;4.412;2022-11-15T05:22:20;8.33;;;5.70;;
5937;SDS011;2994;51.220;4.412;2022-11-15T05:24:46;8.30;;;6.10;;
5937;SDS011;2994;51.220;4.412;2022-11-15T05:27:11;7.47;;;5.93;;
5937;SDS011;2994;51.220;4.412;2022-11-15T05:29:36;11.60;;;6.57;;
5937;SDS011;2994;51.220;4.412;2022-11-15T05:32:03;7.80;;;6.23;;
5937;SDS011;2994;51.220;4.412;2022-11-15T05:34:30;7.67;;;5.13;;
5937;SDS011;2994;51.220;4.412;2022-11-15T05:36:56;8.93;;;6.13;;
5937;SDS011;2994;51.220;4.412;2022-11-15T05:39:21;6.27;;;5.60;;
5937;SDS011;2994;51.220;4.412;2022-11-15T05:41:54;7.10;;;6.00;;
5937;SDS011;2994;51.220;4.412;2022-11-15T05:44:24;6.73;;;5.67;;
5937;SDS011;2994;51.220;4.412;2022-11-15T05:46:51;8.97;;;5.60;;
5937;SDS011;2994;51.220;4.412;2022-11-15T05:49:20;10.80;;;7.93;;
5937;SDS011;2994;51.220;4.412;2022-11-15T05:51:48;6.47;;;5.73;;
5937;SDS011;2994;51.220;4.412;2022-11-15T05:54:16;8.00;;;5.87;;
5937;SDS011;2994;51.220;4.412;2022-11-15T05:56:42;6.00;;;5.40;;
5937;SDS011;2994;51.220;4.412;2022-11-15T05:59:08;9.40;;;4.80;;
5937;SDS011;2994;51.220;4.412;2022-11-15T06:01:35;5.43;;;4.93;;
5937;SDS011;2994;51.220;4.412;2022-11-15T06:04:02;6.10;;;5.10;;
5937;SDS011;2994;51.220;4.412;2022-11-15T06:06:27;5.77;;;4.83;;
5937;SDS011;2994;51.220;4.412;2022-11-15T06:08:53;8.10;;;5.17;;
5937;SDS011;2994;51.220;4.412;2022-11-15T06:11:19;5.30;;;4.63;;
5937;SDS011;2994;51.220;4.412;2022-11-15T06:13:44;6.00;;;5.40;;
5937;SDS011;2994;51.220;4.412;2022-11-15T06:16:10;5.80;;;4.27;;
5937;SDS011;2994;51.220;4.412;2022-11-15T06:18:35;5.30;;;4.10;;
5937;SDS011;2994;51.220;4.412;2022-11-15T06:21:01;6.30;;;4.80;;
5937;SDS011;2994;51.220;4.412;2022-11-15T06:23:27;7.73;;;4.57;;
5937;SDS011;2994;51.220;4.412;2022-11-15T06:25:53;6.17;;;4.77;;
5937;SDS011;2994;51.220;4.412;2022-11-15T06:28:18;9.00;;;4.90;;
5937;SDS011;2994;51.220;4.412;2022-11-15T06:30:44;10.90;;;5.47;;
5937;SDS011;2994;51.220;4.412;2022-11-15T06:33:09;5.23;;;4.27;;
5937;SDS011;2994;51.220;4.412;2022-11-15T06:35:40;6.27;;;4.47;;
5937;SDS011;2994;51.220;4.412;2022-11-15T06:38:06;6.60;;;4.13;;
5937;SDS011;2994;51.220;4.412;2022-11-15T06:40:36;5.43;;;4.63;;
5937;SDS011;2994;51.220;4.412;2022-11-15T06:43:02;5.50;;;3.97;;
5937;SDS011;2994;51.220;4.412;2022-11-15T06:45:28;6.63;;;4.20;;
5937;SDS011;2994;51.220;4.412;2022-11-15T06:47:54;5.17;;;4.37;;
5937;SDS011;2994;51.220;4.412;2022-11-15T06:50:19;7.07;;;4.47;;
5937;SDS011;2994;51.220;4.412;2022-11-15T06:52:45;5.40;;;4.60;;
5937;SDS011;2994;51.220;4.412;2022-11-15T06:55:10;11.73;;;5.50;;
5937;SDS011;2994;51.220;4.412;2022-11-15T06:57:36;8.00;;;5.40;;
5937;SDS011;2994;51.220;4.412;2022-11-15T07:00:04;10.53;;;6.57;;
5937;SDS011;2994;51.220;4.412;2022-11-15T07:02:30;8.10;;;6.10;;
5937;SDS011;2994;51.220;4.412;2022-11-15T07:04:56;11.23;;;7.13;;
5937;SDS011;2994;51.220;4.412;2022-11-15T07:07:21;6.90;;;6.20;;
5937;SDS011;2994;51.220;4.412;2022-11-15T07:09:47;9.03;;;6.90;;
5937;SDS011;2994;51.220;4.412;2022-11-15T07:12:12;10.30;;;6.77;;
5937;SDS011;2994;51.220;4.412;2022-11-15T07:14:38;9.50;;;6.57;;
5937;SDS011;2994;51.220;4.412;2022-11-15T07:17:04;8.73;;;5.93;;
5937;SDS011;2994;51.220;4.412;2022-11-15T07:19:30;9.90;;;6.80;;
5937;SDS011;2994;51.220;4.412;2022-11-15T07:21:56;9.63;;;7.10;;
5937;SDS011;2994;51.220;4.412;2022-11-15T07:24:21;9.53;;;6.40;;
5937;SDS011;2994;51.220;4.412;2022-11-15T07:26:47;8.30;;;6.30;;
5937;SDS011;2994;51.220;4.412;2022-11-15T07:29:12;7.23;;;5.47;;
5937;SDS011;2994;51.220;4.412;2022-11-15T07:31:38;8.30;;;5.90;;
5937;SDS011;2994;51.220;4.412;2022-11-15T07:34:03;10.80;;;5.50;;
5937;SDS011;2994;51.220;4.412;2022-11-15T07:36:29;7.90;;;6.17;;
5937;SDS011;2994;51.220;4.412;2022-11-15T07:38:54;6.43;;;5.17;;
5937;SDS011;2994;51.220;4.412;2022-11-15T07:41:20;14.13;;;6.00;;
5937;SDS011;2994;51.220;4.412;2022-11-15T07:43:45;8.87;;;6.50;;
5937;SDS011;2994;51.220;4.412;2022-11-15T07:46:11;7.87;;;5.90;;
5937;SDS011;2994;51.220;4.412;2022-11-15T07:48:36;9.30;;;5.90;;
5937;SDS011;2994;51.220;4.412;2022-11-15T07:51:05;6.63;;;5.80;;
5937;SDS011;2994;51.220;4.412;2022-11-15T07:53:30;6.80;;;5.70;;
5937;SDS011;2994;51.220;4.412;2022-11-15T07:55:56;5.63;;;4.97;;
5937;SDS011;2994;51.220;4.412;2022-11-15T07:58:21;6.50;;;5.17;;
5937;SDS011;2994;51.220;4.412;2022-11-15T08:00:47;10.10;;;5.60;;
5937;SDS011;2994;51.220;4.412;2022-11-15T08:03:15;9.70;;;5.40;;
5937;SDS011;2994;51.220;4.412;2022-11-15T08:05:41;6.00;;;5.40;;
5937;SDS011;2994;51.220;4.412;2022-11-15T08:08:08;9.30;;;5.73;;
5937;SDS011;2994;51.220;4.412;2022-11-15T08:10:35;7.07;;;5.07;;
5937;SDS011;2994;51.220;4.412;2022-11-15T08:13:02;10.67;;;5.90;;
5937;SDS011;2994;51.220;4.412;2022-11-15T08:15:30;6.70;;;5.57;;
5937;SDS011;2994;51.220;4.412;2022-11-15T08:17:56;10.60;;;5.77;;
5937;SDS011;2994;51.220;4.412;2022-11-15T08:20:23;7.03;;;5.40;;
5937;SDS011;2994;51.220;4.412;2022-11-15T08:22:50;9.50;;;5.57;;
5937;SDS011;2994;51.220;4.412;2022-11-15T08:25:15;6.37;;;4.50;;
5937;SDS011;2994;51.220;4.412;2022-11-15T08:27:41;6.00;;;5.03;;
5937;SDS011;2994;51.220;4.412;2022-11-15T08:30:07;5.93;;;4.60;;
5937;SDS011;2994;51.220;4.412;2022-11-15T08:32:33;8.50;;;4.97;;
5937;SDS011;2994;51.220;4.412;2022-11-15T08:34:58;6.97;;;4.43;;
5937;SDS011;2994;51.220;4.412;2022-11-15T08:37:24;9.10;;;5.07;;
5937;SDS011;2994;51.220;4.412;2022-11-15T08:39:49;6.40;;;3.97;;
5937;SDS011;2994;51.220;4.412;2022-11-15T08:42:15;6.93;;;4.33;;
5937;SDS011;2994;51.220;4.412;2022-11-15T08:44:41;5.90;;;4.27;;
5937;SDS011;2994;51.220;4.412;2022-11-15T08:47:07;4.53;;;4.10;;
5937;SDS011;2994;51.220;4.412;2022-11-15T08:49:32;5.83;;;4.40;;
5937;SDS011;2994;51.220;4.412;2022-11-15T08:51:58;7.20;;;3.97;;
5937;SDS011;2994;51.220;4.412;2022-11-15T08:54:23;6.93;;;4.70;;
5937;SDS011;2994;51.220;4.412;2022-11-15T08:56:48;5.57;;;4.37;;
5937;SDS011;2994;51.220;4.412;2022-11-15T08:59:14;10.90;;;5.30;;
5937;SDS011;2994;51.220;4.412;2022-11-15T09:01:39;10.00;;;4.13;;
5937;SDS011;2994;51.220;4.412;2022-11-15T09:04:05;5.70;;;4.93;;
5937;SDS011;2994;51.220;4.412;2022-11-15T09:06:30;6.07;;;3.90;;
5937;SDS011;2994;51.220;4.412;2022-11-15T09:08:56;5.50;;;3.50;;
5937;SDS011;2994;51.220;4.412;2022-11-15T09:11:22;5.03;;;3.73;;
5937;SDS011;2994;51.220;4.412;2022-11-15T09:13:48;7.03;;;4.03;;
5937;SDS011;2994;51.220;4.412;2022-11-15T09:16:14;5.70;;;3.40;;
5937;SDS011;2994;51.220;4.412;2022-11-15T09:18:40;5.90;;;2.90;;
5937;SDS011;2994;51.220;4.412;2022-11-15T09:21:06;5.53;;;3.00;;
5937;SDS011;2994;51.220;4.412;2022-11-15T09:23:32;4.80;;;3.13;;
5937;SDS011;2994;51.220;4.412;2022-11-15T09:25:58;4.47;;;3.20;;
5937;SDS011;2994;51.220;4.412;2022-11-15T09:28:26;3.77;;;2.67;;
5937;SDS011;2994;51.220;4.412;2022-11-15T09:30:55;4.47;;;3.10;;
5937;SDS011;2994;51.220;4.412;2022-11-15T09:33:24;6.70;;;3.27;;
5937;SDS011;2994;51.220;4.412;2022-11-15T09:35:50;6.27;;;2.97;;
5937;SDS011;2994;51.220;4.412;2022-11-15T09:38:16;6.33;;;3.63;;
5937;SDS011;2994;51.220;4.412;2022-11-15T09:40:41;2.93;;;2.13;;
5937;SDS011;2994;51.220;4.412;2022-11-15T09:46:02;3.70;;;2.60;;
5937;SDS011;2994;51.220;4.412;2022-11-15T09:51:24;3.10;;;2.77;;
5937;SDS011;2994;51.220;4.412;2022-11-15T09:54:04;3.27;;;2.33;;
5937;SDS011;2994;51.220;4.412;2022-11-15T09:56:37;4.40;;;2.27;;
5937;SDS011;2994;51.220;4.412;2022-11-15T09:59:13;4.27;;;2.70;;
5937;SDS011;2994;51.220;4.412;2022-11-15T10:04:20;2.73;;;2.20;;
5937;SDS011;2994;51.220;4.412;2022-11-15T10:06:50;2.27;;;1.50;;
5937;SDS011;2994;51.220;4.412;2022-11-15T10:09:39;3.10;;;2.17;;
5937;SDS011;2994;51.220;4.412;2022-11-15T10:12:10;5.90;;;2.17;;
5937;SDS011;2994;51.220;4.412;2022-11-15T10:14:38;8.73;;;2.77;;
5937;SDS011;2994;51.220;4.412;2022-11-15T10:17:16;1.60;;;1.50;;
5937;SDS011;2994;51.220;4.412;2022-11-15T10:19:53;8.10;;;2.23;;
5937;SDS011;2994;51.220;4.412;2022-11-15T10:22:40;6.90;;;2.57;;
5937;SDS011;2994;51.220;4.412;2022-11-15T10:25:12;3.87;;;1.90;;
5937;SDS011;2994;51.220;4.412;2022-11-15T10:27:47;4.17;;;2.33;;
5937;SDS011;2994;51.220;4.412;2022-11-15T10:30:18;6.57;;;1.80;;
5937;SDS011;2994;51.220;4.412;2022-11-15T10:32:45;5.53;;;2.23;;
5937;SDS011;2994;51.220;4.412;2022-11-15T10:35:16;4.07;;;1.77;;
5937;SDS011;2994;51.220;4.412;2022-11-15T10:37:43;4.90;;;2.23;;
5937;SDS011;2994;51.220;4.412;2022-11-15T10:40:22;2.80;;;1.63;;
5937;SDS011;2994;51.220;4.412;2022-11-15T10:42:49;7.33;;;1.97;;
5937;SDS011;2994;51.220;4.412;2022-11-15T10:45:39;4.90;;;2.10;;
5937;SDS011;2994;51.220;4.412;2022-11-15T10:50:36;3.40;;;1.70;;
5937;SDS011;2994;51.220;4.412;2022-11-15T10:53:02;2.97;;;1.80;;
5937;SDS011;2994;51.220;4.412;2022-11-15T10:55:28;4.80;;;1.77;;
5937;SDS011;2994;51.220;4.412;2022-11-15T11:00:40;5.80;;;2.37;;
5937;SDS011;2994;51.220;4.412;2022-11-15T11:03:24;3.43;;;2.10;;
5937;SDS011;2994;51.220;4.412;2022-11-15T11:06:04;4.73;;;1.80;;
5937;SDS011;2994;51.220;4.412;2022-11-15T11:08:32;5.73;;;1.90;;
5937;SDS011;2994;51.220;4.412;2022-11-15T11:10:59;4.70;;;2.37;;
5937;SDS011;2994;51.220;4.412;2022-11-15T11:13:27;3.60;;;2.00;;
5937;SDS011;2994;51.220;4.412;2022-11-15T11:16:00;5.43;;;1.97;;
5937;SDS011;2994;51.220;4.412;2022-11-15T11:24:37;4.03;;;1.80;;
5937;SDS011;2994;51.220;4.412;2022-11-15T11:34:53;5.70;;;1.80;;
5937;SDS011;2994;51.220;4.412;2022-11-15T11:37:47;2.97;;;1.73;;
5937;SDS011;2994;51.220;4.412;2022-11-15T11:43:08;2.33;;;1.50;;
5937;SDS011;2994;51.220;4.412;2022-11-15T11:45:44;4.00;;;1.90;;
5937;SDS011;2994;51.220;4.412;2022-11-15T11:48:39;4.30;;;2.07;;
5937;SDS011;2994;51.220;4.412;2022-11-15T11:53:53;4.30;;;2.03;;
5937;SDS011;2994;51.220;4.412;2022-11-15T11:56:28;4.53;;;2.30;;
5937;SDS011;2994;51.220;4.412;2022-11-15T12:01:33;3.37;;;1.60;;
5937;SDS011;2994;51.220;4.412;2022-11-15T12:11:55;4.87;;;1.63;;
5937;SDS011;2994;51.220;4.412;2022-11-15T12:14:47;7.50;;;2.03;;
5937;SDS011;2994;51.220;4.412;2022-11-15T12:17:19;4.10;;;1.67;;
5937;SDS011;2994;51.220;4.412;2022-11-15T12:19:52;7.70;;;2.37;;
5937;SDS011;2994;51.220;4.412;2022-11-15T12:22:43;4.53;;;1.60;;
5937;SDS011;2994;51.220;4.412;2022-11-15T12:25:40;5.03;;;1.70;;
5937;SDS011;2994;51.220;4.412;2022-11-15T12:30:44;3.23;;;2.13;;
5937;SDS011;2994;51.220;4.412;2022-11-15T12:33:31;3.97;;;1.70;;
5937;SDS011;2994;51.220;4.412;2022-11-15T12:38:58;4.67;;;2.00;;
5937;SDS011;2994;51.220;4.412;2022-11-15T12:41:35;3.47;;;2.23;;
5937;SDS011;2994;51.220;4.412;2022-11-15T12:44:02;5.00;;;1.77;;
5937;SDS011;2994;51.220;4.412;2022-11-15T12:49:10;6.33;;;1.70;;
5937;SDS011;2994;51.220;4.412;2022-11-15T12:52:09;3.87;;;1.70;;
5937;SDS011;2994;51.220;4.412;2022-11-15T13:02:48;2.77;;;1.70;;
5937;SDS011;2994;51.220;4.412;2022-11-15T13:08:00;4.07;;;1.70;;
5937;SDS011;2994;51.220;4.412;2022-11-15T13:10:30;2.57;;;1.90;;
5937;SDS011;2994;51.220;4.412;2022-11-15T13:13:08;3.87;;;1.97;;
5937;SDS011;2994;51.220;4.412;2022-11-15T13:21:16;6.13;;;2.13;;
5937;SDS011;2994;51.220;4.412;2022-11-15T13:24:02;5.53;;;2.00;;
5937;SDS011;2994;51.220;4.412;2022-11-15T13:26:28;3.93;;;1.70;;
5937;SDS011;2994;51.220;4.412;2022-11-15T13:28:54;2.40;;;1.87;;
5937;SDS011;2994;51.220;4.412;2022-11-15T13:31:36;3.67;;;1.60;;
5937;SDS011;2994;51.220;4.412;2022-11-15T13:34:16;3.50;;;2.20;;
5937;SDS011;2994;51.220;4.412;2022-11-15T13:36:57;3.60;;;1.60;;
5937;SDS011;2994;51.220;4.412;2022-11-15T13:41:56;3.57;;;1.90;;
5937;SDS011;2994;51.220;4.412;2022-11-15T13:44:27;3.03;;;1.50;;
5937;SDS011;2994;51.220;4.412;2022-11-15T13:47:00;3.63;;;1.70;;
5937;SDS011;2994;51.220;4.412;2022-11-15T13:49:46;3.13;;;1.70;;
5937;SDS011;2994;51.220;4.412;2022-11-15T13:52:15;4.30;;;1.80;;
5937;SDS011;2994;51.220;4.412;2022-11-15T13:54:46;2.53;;;1.70;;
5937;SDS011;2994;51.220;4.412;2022-11-15T14:00:06;5.07;;;2.43;;
5937;SDS011;2994;51.220;4.412;2022-11-15T14:08:23;4.33;;;2.10;;
5937;SDS011;2994;51.220;4.412;2022-11-15T14:11:04;2.70;;;1.47;;
5937;SDS011;2994;51.220;4.412;2022-11-15T14:13:37;4.30;;;1.70;;
5937;SDS011;2994;51.220;4.412;2022-11-15T14:16:13;6.67;;;2.10;;
5937;SDS011;2994;51.220;4.412;2022-11-15T14:18:41;4.40;;;2.23;;
5937;SDS011;2994;51.220;4.412;2022-11-15T14:21:17;5.87;;;3.00;;
5937;SDS011;2994;51.220;4.412;2022-11-15T14:23:44;3.93;;;2.30;;
5937;SDS011;2994;51.220;4.412;2022-11-15T14:26:29;3.67;;;1.90;;
5937;SDS011;2994;51.220;4.412;2022-11-15T14:28:56;3.53;;;2.17;;
5937;SDS011;2994;51.220;4.412;2022-11-15T14:31:22;2.67;;;2.43;;
5937;SDS011;2994;51.220;4.412;2022-11-15T14:33:47;4.50;;;2.53;;
5937;SDS011;2994;51.220;4.412;2022-11-15T14:36:17;3.97;;;1.70;;
5937;SDS011;2994;51.220;4.412;2022-11-15T14:38:44;5.00;;;1.70;;
5937;SDS011;2994;51.220;4.412;2022-11-15T14:41:21;2.40;;;1.60;;
5937;SDS011;2994;51.220;4.412;2022-11-15T14:43:51;2.70;;;1.70;;
5937;SDS011;2994;51.220;4.412;2022-11-15T14:46:17;2.33;;;1.70;;
5937;SDS011;2994;51.220;4.412;2022-11-15T14:48:43;3.60;;;1.80;;
5937;SDS011;2994;51.220;4.412;2022-11-15T14:51:12;2.67;;;2.30;;
5937;SDS011;2994;51.220;4.412;2022-11-15T14:53:39;6.00;;;1.97;;
5937;SDS011;2994;51.220;4.412;2022-11-15T14:56:05;2.20;;;1.63;;
5937;SDS011;2994;51.220;4.412;2022-11-15T14:58:30;3.00;;;1.60;;
5937;SDS011;2994;51.220;4.412;2022-11-15T15:00:56;2.63;;;2.43;;
5937;SDS011;2994;51.220;4.412;2022-11-15T15:03:21;2.30;;;1.93;;
5937;SDS011;2994;51.220;4.412;2022-11-15T15:05:47;2.83;;;1.60;;
5937;SDS011;2994;51.220;4.412;2022-11-15T15:08:12;2.30;;;2.00;;
5937;SDS011;2994;51.220;4.412;2022-11-15T15:10:41;4.00;;;2.50;;
5937;SDS011;2994;51.220;4.412;2022-11-15T15:13:15;2.20;;;2.00;;
5937;SDS011;2994;51.220;4.412;2022-11-15T15:15:45;2.90;;;1.87;;
5937;SDS011;2994;51.220;4.412;2022-11-15T15:18:12;3.53;;;2.40;;
5937;SDS011;2994;51.220;4.412;2022-11-15T15:20:38;4.30;;;2.70;;
5937;SDS011;2994;51.220;4.412;2022-11-15T15:23:05;2.63;;;2.10;;
5937;SDS011;2994;51.220;4.412;2022-11-15T15:25:31;2.87;;;2.37;;
5937;SDS011;2994;51.220;4.412;2022-11-15T15:27:58;7.20;;;2.53;;
5937;SDS011;2994;51.220;4.412;2022-11-15T15:30:25;2.17;;;1.87;;
5937;SDS011;2994;51.220;4.412;2022-11-15T15:32:52;5.00;;;2.83;;
5937;SDS011;2994;51.220;4.412;2022-11-15T15:35:18;3.30;;;2.27;;
5937;SDS011;2994;51.220;4.412;2022-11-15T15:37:47;6.60;;;2.93;;
5937;SDS011;2994;51.220;4.412;2022-11-15T15:40:16;3.47;;;2.20;;
5937;SDS011;2994;51.220;4.412;2022-11-15T15:42:42;3.97;;;2.80;;
5937;SDS011;2994;51.220;4.412;2022-11-15T15:45:08;5.50;;;3.03;;
5937;SDS011;2994;51.220;4.412;2022-11-15T15:47:34;3.10;;;2.80;;
5937;SDS011;2994;51.220;4.412;2022-11-15T15:49:59;4.70;;;2.53;;
5937;SDS011;2994;51.220;4.412;2022-11-15T15:52:25;3.33;;;2.30;;
5937;SDS011;2994;51.220;4.412;2022-11-15T15:54:50;7.10;;;2.70;;
5937;SDS011;2994;51.220;4.412;2022-11-15T15:57:16;6.10;;;3.67;;
5937;SDS011;2994;51.220;4.412;2022-11-15T15:59:41;4.50;;;3.03;;
5937;SDS011;2994;51.220;4.412;2022-11-15T16:02:08;2.73;;;2.53;;
5937;SDS011;2994;51.220;4.412;2022-11-15T16:04:38;4.70;;;2.70;;
5937;SDS011;2994;51.220;4.412;2022-11-15T16:07:04;6.37;;;3.13;;
5937;SDS011;2994;51.220;4.412;2022-11-15T16:09:32;3.53;;;2.97;;
5937;SDS011;2994;51.220;4.412;2022-11-15T16:12:16;3.33;;;3.00;;
5937;SDS011;2994;51.220;4.412;2022-11-15T16:14:42;3.40;;;3.10;;
5937;SDS011;2994;51.220;4.412;2022-11-15T16:17:14;4.70;;;3.00;;
5937;SDS011;2994;51.220;4.412;2022-11-15T16:19:48;3.30;;;3.00;;
5937;SDS011;2994;51.220;4.412;2022-11-15T16:22:14;3.20;;;2.83;;
5937;SDS011;2994;51.220;4.412;2022-11-15T16:24:39;5.43;;;2.80;;
5937;SDS011;2994;51.220;4.412;2022-11-15T16:27:04;3.90;;;3.50;;
5937;SDS011;2994;51.220;4.412;2022-11-15T16:29:30;3.33;;;3.03;;
5937;SDS011;2994;51.220;4.412;2022-11-15T16:31:56;5.27;;;3.67;;
5937;SDS011;2994;51.220;4.412;2022-11-15T16:34:27;5.97;;;3.30;;
5937;SDS011;2994;51.220;4.412;2022-11-15T16:36:53;5.33;;;3.90;;
5937;SDS011;2994;51.220;4.412;2022-11-15T16:39:19;3.77;;;3.43;;
5937;SDS011;2994;51.220;4.412;2022-11-15T16:41:44;4.30;;;3.93;;
5937;SDS011;2994;51.220;4.412;2022-11-15T16:44:12;4.10;;;3.67;;
5937;SDS011;2994;51.220;4.412;2022-11-15T16:46:39;5.40;;;4.77;;
5937;SDS011;2994;51.220;4.412;2022-11-15T16:49:08;4.27;;;3.47;;
5937;SDS011;2994;51.220;4.412;2022-11-15T16:51:38;4.13;;;3.50;;
5937;SDS011;2994;51.220;4.412;2022-11-15T16:54:05;4.83;;;4.27;;
5937;SDS011;2994;51.220;4.412;2022-11-15T16:56:31;5.07;;;3.90;;
5937;SDS011;2994;51.220;4.412;2022-11-15T16:58:57;4.67;;;4.20;;
5937;SDS011;2994;51.220;4.412;2022-11-15T17:01:25;3.50;;;3.20;;